Time;durP1;ratioP1;P1;durP2;ratioP2;P2;SDS_P1;SDS_P2;PMS_P1;PMS_P2;Temp;Humidity;BMP_temperature;BMP_pressure;BME280_temperature;BME280_humidity;BME280_pressure;Samples;Min_cycle;Max_cycle;Signal;HPM_P1;HPM_P2
2021/03/13 00:00:37;;;;;;;53.57;26.40;;;;;;;19.95;49.83;100197.28;2097699;28;20041;-52
2021/03/13 00:01:38;;;;;;;50.93;30.43;;;;;;;19.96;49.86;100209.06;2097365;28;20028;-53
2021/03/13 00:02:40;;;;;;;51.57;28.83;;;;;;;19.96;49.80;100198.13;2098453;28;20036;-54
2021/03/13 00:03:40;;;;;;;51.55;28.38;;;;;;;19.96;49.90;100198.97;2090012;28;20135;-53
2021/03/13 00:04:40;;;;;;;56.17;28.17;;;;;;;19.96;49.86;100204.47;2091824;28;20056;-52
2021/03/13 00:05:42;;;;;;;50.40;26.67;;;;;;;19.96;49.82;100201.72;2097803;28;20040;-54
2021/03/13 00:06:43;;;;;;;45.67;27.48;;;;;;;19.97;49.94;100199.88;2095974;28;20039;-53
2021/03/13 00:07:43;;;;;;;53.33;27.67;;;;;;;19.96;49.93;100198.97;2096500;28;20107;-53
2021/03/13 00:08:43;;;;;;;49.00;28.77;;;;;;;19.96;49.78;100198.97;2091263;28;20060;-51
2021/03/13 00:09:45;;;;;;;51.70;28.50;;;;;;;19.97;49.89;100194.41;2091440;28;20020;-54
2021/03/13 00:10:46;;;;;;;49.35;27.08;;;;;;;19.96;49.74;100187.19;2096820;28;20347;-53
2021/03/13 00:11:47;;;;;;;51.08;27.63;;;;;;;19.97;49.79;100195.25;2094259;28;20064;-51
2021/03/13 00:12:48;;;;;;;51.20;27.50;;;;;;;19.97;49.89;100198.00;2089960;28;20025;-52
2021/03/13 00:13:48;;;;;;;52.67;27.77;;;;;;;19.96;49.87;100193.50;2093565;28;20081;-53
2021/03/13 00:14:48;;;;;;;47.60;27.40;;;;;;;19.96;49.76;100190.78;2089614;28;20037;-53
2021/03/13 00:15:49;;;;;;;49.77;27.20;;;;;;;19.96;49.92;100193.50;2091219;28;20041;-54
2021/03/13 00:16:49;;;;;;;51.43;27.57;;;;;;;19.97;49.88;100195.25;2097673;28;20039;-54
2021/03/13 00:17:52;;;;;;;49.90;28.77;;;;;;;19.97;49.83;100200.72;2094368;28;20342;-54
2021/03/13 00:18:53;;;;;;;53.90;27.75;;;;;;;19.97;49.71;100194.41;2091277;28;20039;-55
2021/03/13 00:19:53;;;;;;;49.97;28.03;;;;;;;19.96;49.93;100196.25;2097247;28;20028;-54
2021/03/13 00:20:54;;;;;;;47.97;28.47;;;;;;;19.96;49.77;100192.66;2093655;28;20044;-52
2021/03/13 00:21:54;;;;;;;49.50;28.20;;;;;;;19.96;49.87;100188.03;2093518;28;20211;-52
2021/03/13 00:22:56;;;;;;;47.53;27.27;;;;;;;19.96;49.94;100188.03;2098057;28;20028;-53
2021/03/13 00:23:56;;;;;;;47.40;27.88;;;;;;;19.97;49.80;100192.53;2096182;28;20050;-54
2021/03/13 00:24:57;;;;;;;50.00;26.53;;;;;;;19.96;49.93;100193.50;2090307;28;20033;-52
2021/03/13 00:25:57;;;;;;;46.03;25.33;;;;;;;19.94;49.80;100194.69;2096595;28;20050;-51
2021/03/13 00:26:58;;;;;;;47.30;26.03;;;;;;;19.96;49.85;100193.50;2096338;28;20084;-53
2021/03/13 00:27:58;;;;;;;51.40;26.73;;;;;;;19.95;50.02;100191.81;2096302;28;20120;-54
2021/03/13 00:28:59;;;;;;;48.50;25.87;;;;;;;19.96;49.85;100193.50;2097163;28;20032;-53
2021/03/13 00:29:59;;;;;;;45.67;27.37;;;;;;;19.95;49.80;100191.81;2098298;28;20028;-52
2021/03/13 00:31:00;;;;;;;49.90;26.93;;;;;;;19.96;49.89;100192.66;2096484;28;20078;-53
2021/03/13 00:32:00;;;;;;;51.27;27.13;;;;;;;19.95;49.92;100189.06;2097775;28;20438;-54
2021/03/13 00:33:12;;;;;;;48.33;25.43;;;;;;;19.95;50.06;100189.06;2097728;28;20051;-54
2021/03/13 00:34:13;;;;;;;48.47;26.02;;;;;;;19.96;49.78;100192.66;2096545;28;20197;-51
2021/03/13 00:35:14;;;;;;;47.60;25.80;;;;;;;19.95;50.00;100178.13;2090227;28;20044;-52
2021/03/13 00:36:14;;;;;;;46.65;25.52;;;;;;;19.95;49.90;100182.75;2091167;28;20029;-54
2021/03/13 00:37:15;;;;;;;46.40;25.93;;;;;;;19.94;49.91;100179.13;2092357;28;20039;-52
2021/03/13 00:38:16;;;;;;;48.37;26.47;;;;;;;19.95;49.89;100180.88;2094566;28;20038;-51
2021/03/13 00:39:18;;;;;;;47.95;25.40;;;;;;;19.96;49.89;100182.56;2093381;28;20071;-53
2021/03/13 00:40:21;;;;;;;49.75;26.02;;;;;;;19.95;49.98;100172.66;2098090;28;20422;-51
2021/03/13 00:41:21;;;;;;;44.95;25.15;;;;;;;19.93;49.95;100171.94;2096739;28;20123;-54
2021/03/13 00:42:22;;;;;;;51.80;27.00;;;;;;;19.93;49.91;100177.41;2095191;28;20059;-54
2021/03/13 00:43:22;;;;;;;46.43;26.17;;;;;;;19.92;49.96;100159.28;2096887;28;20092;-54
2021/03/13 00:44:23;;;;;;;47.57;26.43;;;;;;;19.92;49.99;100164.75;2097335;28;20025;-53
2021/03/13 00:45:25;;;;;;;45.47;25.77;;;;;;;19.92;49.99;100162.88;2098138;28;20036;-52
2021/03/13 00:46:26;;;;;;;43.63;24.95;;;;;;;19.92;49.93;100164.75;2097360;28;20075;-53
2021/03/13 00:47:27;;;;;;;41.97;25.07;;;;;;;19.91;49.96;100169.34;2097895;28;20035;-52
2021/03/13 00:48:27;;;;;;;48.83;25.43;;;;;;;19.91;50.09;100165.75;2097305;28;20274;-53
2021/03/13 00:49:27;;;;;;;44.03;24.47;;;;;;;19.91;50.23;100168.50;2097907;28;20024;-53
2021/03/13 00:50:30;;;;;;;44.30;22.97;;;;;;;19.91;49.94;100163.03;2097606;28;20092;-53
2021/03/13 00:51:30;;;;;;;44.65;24.65;;;;;;;19.92;49.93;100164.75;2094945;28;20342;-53
2021/03/13 00:52:31;;;;;;;40.40;22.93;;;;;;;19.90;50.00;100161.31;2097223;28;20064;-54
2021/03/13 00:53:31;;;;;;;47.13;24.10;;;;;;;19.91;50.07;100163.03;2097567;28;20427;-53
2021/03/13 00:54:32;;;;;;;47.83;25.93;;;;;;;19.90;50.18;100153.97;2097423;28;20126;-53
2021/03/13 00:55:33;;;;;;;46.40;25.10;;;;;;;19.90;50.01;100155.84;2097070;28;20444;-50
2021/03/13 00:56:34;;;;;;;49.63;26.13;;;;;;;19.90;50.08;100164.91;2092535;28;20026;-53
2021/03/13 00:57:35;;;;;;;39.37;23.17;;;;;;;19.90;49.86;100162.16;2095362;28;20036;-54
2021/03/13 00:58:35;;;;;;;43.20;24.67;;;;;;;19.90;50.03;100155.84;2097720;28;20028;-54
2021/03/13 00:59:35;;;;;;;43.17;24.40;;;;;;;19.89;49.99;100160.47;2097434;28;20035;-52
2021/03/13 01:00:37;;;;;;;47.97;27.97;;;;;;;19.91;49.82;100152.06;2097509;28;20056;-53
2021/03/13 01:01:38;;;;;;;42.92;24.30;;;;;;;19.90;50.07;100156.69;2097018;28;20067;-53
2021/03/13 01:02:38;;;;;;;46.53;25.60;;;;;;;19.91;50.07;100154.81;2097541;28;20342;-54
2021/03/13 01:03:38;;;;;;;46.17;24.07;;;;;;;19.92;50.00;100159.28;2097234;28;20107;-54
2021/03/13 01:04:39;;;;;;;41.67;23.90;;;;;;;19.92;50.04;100151.94;2097676;28;20031;-54
2021/03/13 01:05:40;;;;;;;45.27;25.23;;;;;;;19.94;50.04;100157.22;2096961;28;20448;-54
2021/03/13 01:06:40;;;;;;;53.30;26.37;;;;;;;19.95;49.89;100155.38;2097339;28;20134;-54
2021/03/13 01:07:41;;;;;;;42.40;25.63;;;;;;;19.95;49.89;100153.50;2097596;28;20063;-54
2021/03/13 01:08:42;;;;;;;45.10;25.20;;;;;;;19.96;50.10;100155.22;2094183;28;20090;-54
2021/03/13 01:09:42;;;;;;;44.97;25.33;;;;;;;19.99;49.86;100156.78;2096809;28;20025;-52
2021/03/13 01:10:43;;;;;;;43.17;23.20;;;;;;;19.99;50.00;100154.94;2097410;28;20028;-54
2021/03/13 01:11:43;;;;;;;37.83;22.70;;;;;;;19.99;49.93;100154.94;2091372;28;20233;-51
2021/03/13 01:12:44;;;;;;;40.77;23.00;;;;;;;19.99;49.88;100146.72;2096893;28;20024;-51
2021/03/13 01:13:44;;;;;;;42.03;23.50;;;;;;;19.99;49.90;100149.44;2094821;28;20032;-51
2021/03/13 01:14:45;;;;;;;41.47;24.47;;;;;;;19.99;49.99;100151.31;2097569;28;20261;-52
2021/03/13 01:15:46;;;;;;;43.40;24.87;;;;;;;19.98;49.99;100152.34;2095736;28;20382;-50
2021/03/13 01:16:46;;;;;;;40.20;23.50;;;;;;;19.98;49.96;100152.34;2090980;28;20033;-51
2021/03/13 01:17:47;;;;;;;41.60;22.77;;;;;;;19.97;49.99;100151.47;2095718;28;20043;-52
2021/03/13 01:18:47;;;;;;;41.43;24.07;;;;;;;19.97;50.05;100147.88;2097469;28;20423;-52
2021/03/13 01:19:47;;;;;;;40.00;22.90;;;;;;;19.97;50.05;100156.09;2093320;28;20032;-51
2021/03/13 01:20:50;;;;;;;41.33;24.17;;;;;;;19.96;50.05;100159.81;2092090;28;20028;-51
2021/03/13 01:21:50;;;;;;;40.10;23.73;;;;;;;19.93;50.06;100144.59;2097810;28;20036;-51
2021/03/13 01:22:51;;;;;;;42.30;25.23;;;;;;;19.93;50.11;100150.06;2096180;28;20108;-52
2021/03/13 01:23:51;;;;;;;43.50;24.93;;;;;;;19.92;50.15;100142.88;2097232;28;20037;-51
2021/03/13 01:24:52;;;;;;;42.87;24.53;;;;;;;19.92;50.09;100141.00;2097872;28;20020;-52
2021/03/13 01:25:52;;;;;;;45.07;24.27;;;;;;;19.91;50.40;100146.59;2095725;28;20157;-51
2021/03/13 01:26:52;;;;;;;40.23;23.57;;;;;;;19.91;50.16;100146.59;2097868;28;20486;-51
2021/03/13 01:27:53;;;;;;;46.23;24.60;;;;;;;19.90;50.26;100142.16;2097051;28;20024;-51
2021/03/13 01:28:53;;;;;;;41.70;24.50;;;;;;;19.91;50.15;100149.34;2097844;28;20032;-53
2021/03/13 01:29:54;;;;;;;40.90;22.60;;;;;;;19.89;50.19;100143.16;2089384;28;20028;-52
2021/03/13 01:30:54;;;;;;;40.47;22.63;;;;;;;19.88;50.13;100145.03;2090245;28;20066;-50
2021/03/13 01:32:02;;;;;;;35.60;23.10;;;;;;;19.89;50.14;100140.41;2097812;28;20445;-52
2021/03/13 01:33:03;;;;;;;37.80;21.73;;;;;;;19.87;50.26;100139.75;2094600;28;20028;-52
2021/03/13 01:34:03;;;;;;;37.97;24.60;;;;;;;19.86;50.26;100141.59;2093635;28;20194;-52
2021/03/13 01:35:05;;;;;;;41.13;22.30;;;;;;;19.86;50.31;100143.47;2097517;28;20032;-52
2021/03/13 01:36:06;;;;;;;40.47;21.58;;;;;;;19.85;50.11;100141.78;2093677;28;20102;-53
2021/03/13 01:37:06;;;;;;;39.47;21.20;;;;;;;19.84;50.30;100143.66;2095342;28;20169;-52
2021/03/13 01:38:07;;;;;;;41.10;24.53;;;;;;;19.85;50.35;100142.63;2100531;28;20044;-52
2021/03/13 01:39:09;;;;;;;36.37;21.70;;;;;;;19.84;50.39;100143.66;2093884;28;20044;-51
2021/03/13 01:40:14;;;;;;;37.55;22.10;;;;;;;19.84;50.30;100137.28;2095313;28;20028;-51
2021/03/13 01:41:15;;;;;;;38.55;21.85;;;;;;;19.85;50.27;100139.03;2094935;28;20328;-51
2021/03/13 01:42:16;;;;;;;34.33;20.77;;;;;;;19.83;50.38;100144.66;2093715;28;20039;-51
2021/03/13 01:43:16;;;;;;;35.60;21.67;;;;;;;19.84;50.48;100142.75;2093029;28;20444;-51
2021/03/13 01:44:17;;;;;;;37.87;21.63;;;;;;;19.83;50.37;100138.31;2080024;28;20021;-51
2021/03/13 01:45:20;;;;;;;39.17;21.77;;;;;;;19.83;50.27;100138.31;2093990;28;20052;-53
2021/03/13 01:46:20;;;;;;;38.05;22.98;;;;;;;19.82;50.47;100142.06;2097137;28;20324;-52
2021/03/13 01:47:22;;;;;;;40.60;23.23;;;;;;;19.81;50.39;100129.41;2097381;28;20085;-53
2021/03/13 01:48:31;;;;;;;37.38;22.00;;;;;;;19.80;50.33;100133.16;2096935;28;20029;-50
2021/03/13 01:49:33;;;;;;;44.50;22.08;;;;;;;19.80;50.41;100124.97;2090588;28;20032;-53
2021/03/13 01:50:34;;;;;;;37.50;22.77;;;;;;;19.79;50.42;100121.34;2095404;28;20034;-52
2021/03/13 01:51:34;;;;;;;40.43;22.70;;;;;;;19.80;50.42;100122.22;2097385;28;20039;-52
2021/03/13 01:52:35;;;;;;;38.43;20.93;;;;;;;19.80;50.52;100122.22;2093406;28;20104;-53
2021/03/13 01:53:35;;;;;;;33.03;21.90;;;;;;;19.81;50.42;100123.94;2094971;28;20025;-52
2021/03/13 01:54:36;;;;;;;36.23;20.63;;;;;;;19.79;50.41;100115.00;2094221;28;20025;-51
2021/03/13 01:55:37;;;;;;;38.53;21.53;;;;;;;19.77;50.37;100117.91;2097288;28;20069;-52
2021/03/13 01:56:39;;;;;;;37.00;20.53;;;;;;;19.79;50.50;100120.47;2092655;28;20344;-52
2021/03/13 01:57:40;;;;;;;39.03;21.50;;;;;;;19.77;50.33;100115.19;2089094;28;20106;-52
2021/03/13 01:58:41;;;;;;;36.63;20.77;;;;;;;19.77;50.53;100117.91;2094569;28;20355;-51
2021/03/13 01:59:41;;;;;;;38.27;21.17;;;;;;;19.77;50.54;100111.56;2097378;28;20632;-51
2021/03/13 02:00:42;;;;;;;32.47;20.57;;;;;;;19.76;50.60;100115.34;2096552;28;20070;-52
2021/03/13 02:01:44;;;;;;;38.23;22.17;;;;;;;19.76;50.43;100104.38;2096496;28;20025;-52
2021/03/13 02:02:44;;;;;;;35.85;21.88;;;;;;;19.75;50.53;100114.47;2096972;28;20141;-51
2021/03/13 02:03:45;;;;;;;37.83;21.30;;;;;;;19.75;50.62;100108.16;2095026;28;20036;-50
2021/03/13 02:04:45;;;;;;;36.70;20.10;;;;;;;19.75;50.59;100099.94;2096586;28;20028;-51
2021/03/13 02:05:48;;;;;;;38.57;21.70;;;;;;;19.74;50.56;100101.78;2097327;28;20108;-50
2021/03/13 02:07:01;;;;;;;34.33;20.38;;;;;;;19.73;50.56;100105.56;2090747;28;20031;-53
2021/03/13 02:08:18;;;;;;;37.17;20.80;;;;;;;19.72;50.74;100103.84;2096105;28;20050;-52
2021/03/13 02:09:18;;;;;;;38.65;21.13;;;;;;;19.73;50.71;100104.72;2087168;28;20032;-53
2021/03/13 02:10:35;;;;;;;36.97;20.53;;;;;;;19.71;50.70;100093.91;2096708;28;20043;-50
2021/03/13 02:11:45;;;;;;;30.55;18.75;;;;;;;19.70;50.71;100100.41;2095774;28;20510;-52
2021/03/13 02:12:51;;;;;;;40.17;22.15;;;;;;;19.68;50.75;100095.06;2091793;28;20077;-52
2021/03/13 02:14:13;;;;;;;33.42;21.20;;;;;;;19.68;50.70;100097.81;2096536;28;20043;-51
2021/03/13 02:15:46;;;;;;;33.83;20.48;;;;;;;19.67;50.74;100090.63;2097404;28;20044;-53
2021/03/13 02:16:52;;;;;;;38.90;20.73;;;;;;;19.66;50.80;100094.34;2093603;28;20074;-53
2021/03/13 02:18:24;;;;;;;36.08;21.00;;;;;;;19.66;50.62;100096.22;2094025;28;20032;-53
2021/03/13 02:19:44;;;;;;;33.67;19.13;;;;;;;19.65;50.84;100098.09;2092395;28;20037;-53
2021/03/13 02:21:00;;;;;;;37.90;20.98;;;;;;;19.66;50.70;100097.06;2087005;28;20029;-52
2021/03/13 02:22:06;;;;;;;35.35;21.08;;;;;;;19.65;50.72;100098.09;2095030;28;20334;-53
2021/03/13 02:23:10;;;;;;;38.28;21.60;;;;;;;19.65;50.69;100099.97;2094224;28;20054;-53
2021/03/13 02:24:29;;;;;;;34.25;19.50;;;;;;;19.63;50.82;100100.13;2087613;28;20579;-53
2021/03/13 02:26:04;;;;;;;36.30;19.92;;;;;;;19.62;50.88;100092.94;2095634;28;20020;-52
2021/03/13 02:27:22;;;;;;;32.90;19.35;;;;;;;19.62;50.87;100090.22;2096757;28;20426;-51
2021/03/13 02:29:07;;;;;;;34.10;20.33;;;;;;;19.60;50.91;100089.50;2096777;28;20052;-52
2021/03/13 02:30:13;;;;;;;35.30;20.02;;;;;;;19.60;50.92;100089.50;2061787;28;20113;-51
2021/03/13 02:31:15;;;;;;;30.35;20.38;;;;;;;19.60;50.71;100094.97;2063036;28;20037;-53
2021/03/13 02:32:25;;;;;;;36.63;21.05;;;;;;;19.59;51.00;100093.22;2063391;28;20041;-53
2021/03/13 02:33:38;;;;;;;39.45;20.85;;;;;;;19.59;50.92;100093.22;2062036;28;20228;-52
2021/03/13 02:34:42;;;;;;;33.28;18.88;;;;;;;19.59;50.77;100082.28;2062953;28;20066;-52
2021/03/13 02:35:52;;;;;;;34.25;19.80;;;;;;;19.59;50.87;100084.16;2074037;28;20102;-53
2021/03/13 02:36:56;;;;;;;30.55;18.27;;;;;;;19.57;50.96;100083.47;2090410;28;20088;-53
2021/03/13 02:38:01;;;;;;;34.88;19.08;;;;;;;19.58;50.89;100082.47;2089865;28;20049;-52
2021/03/13 02:39:07;;;;;;;33.65;19.77;;;;;;;19.58;51.00;100086.06;2097422;28;20032;-53
2021/03/13 02:40:09;;;;;;;31.70;18.50;;;;;;;19.56;50.88;100079.88;2090918;28;20109;-53
2021/03/13 02:41:12;;;;;;;;;;;;;;;19.55;50.99;100078.16;2097218;28;20032;-50
2021/03/13 02:42:13;;;;;;;31.10;19.23;;;;;;;19.56;50.92;100079.00;2096058;28;19923;-53
2021/03/13 02:43:19;;;;;;;36.08;19.55;;;;;;;19.55;51.10;100075.44;2095947;28;20031;-52
2021/03/13 02:44:21;;;;;;;36.22;20.15;;;;;;;19.55;50.94;100075.44;2088908;28;20466;-53
2021/03/13 02:45:25;;;;;;;33.38;19.17;;;;;;;19.55;50.99;100078.16;2091656;28;20715;-53
2021/03/13 02:46:26;;;;;;;37.35;20.08;;;;;;;19.54;51.02;100076.41;2096661;28;20431;-51
2021/03/13 02:47:27;;;;;;;;;;;;;;;19.54;50.97;100081.88;2096298;28;20434;-53
2021/03/13 02:48:30;;;;;;;32.40;19.42;;;;;;;19.54;51.03;100079.16;2095462;28;19912;-52
2021/03/13 02:49:33;;;;;;;31.25;18.50;;;;;;;19.54;50.96;100078.31;2096977;28;20021;-53
2021/03/13 02:50:38;;;;;;;35.05;19.65;;;;;;;19.53;50.95;100080.19;2088918;28;20031;-53
2021/03/13 02:51:40;;;;;;;35.60;20.10;;;;;;;19.53;50.95;100082.91;2093661;28;20020;-53
2021/03/13 02:52:41;;;;;;;31.15;18.67;;;;;;;19.53;50.99;100080.19;2091537;28;20225;-53
2021/03/13 02:53:45;;;;;;;30.98;18.20;;;;;;;19.53;51.02;100080.19;2096679;28;20052;-52
2021/03/13 02:54:48;;;;;;;30.65;18.83;;;;;;;19.51;50.97;100074.00;2089313;28;20447;-53
2021/03/13 02:55:50;;;;;;;34.88;19.25;;;;;;;19.52;51.04;100075.72;2093216;28;20445;-53
2021/03/13 02:56:53;;;;;;;33.72;19.50;;;;;;;19.53;51.04;100077.44;2097480;28;20330;-51
2021/03/13 02:57:57;;;;;;;32.17;18.58;;;;;;;19.52;50.91;100074.84;2089995;28;20040;-53
2021/03/13 02:58:59;;;;;;;33.50;19.63;;;;;;;19.53;50.97;100065.66;2094035;28;20112;-52
2021/03/13 03:00:01;;;;;;;29.98;18.35;;;;;;;19.54;50.94;100070.94;2091516;28;20025;-53
2021/03/13 03:01:02;;;;;;;28.10;18.10;;;;;;;19.55;50.93;100064.50;2096865;28;20045;-52
2021/03/13 03:02:04;;;;;;;31.75;18.33;;;;;;;19.57;51.04;100069.78;2097120;28;20029;-53
2021/03/13 03:03:06;;;;;;;29.00;17.95;;;;;;;19.57;50.97;100067.91;2089479;28;20060;-53
2021/03/13 03:04:06;;;;;;;;;;;;;;;19.59;50.87;100062.28;2095332;28;20072;-53
2021/03/13 03:05:08;;;;;;;31.50;18.23;;;;;;;19.60;50.58;100061.25;2095203;28;19955;-53
2021/03/13 03:06:09;;;;;;;34.33;20.77;;;;;;;19.60;50.93;100058.53;2092297;28;20029;-53
2021/03/13 03:07:12;;;;;;;28.75;16.98;;;;;;;19.62;50.82;100062.88;2093211;28;20145;-53
2021/03/13 03:08:14;;;;;;;32.30;17.33;;;;;;;19.62;50.63;100065.59;2087759;28;20060;-52
2021/03/13 03:09:16;;;;;;;30.55;17.33;;;;;;;19.61;50.81;100058.38;2094734;28;20363;-53
2021/03/13 03:10:18;;;;;;;30.88;18.67;;;;;;;19.62;50.74;100060.13;2086777;28;20060;-53
2021/03/13 03:11:23;;;;;;;30.63;17.65;;;;;;;19.60;50.79;100059.41;2095854;28;20077;-52
2021/03/13 03:12:25;;;;;;;32.35;17.38;;;;;;;19.62;50.77;100054.66;2093242;28;20028;-53
2021/03/13 03:13:28;;;;;;;29.65;17.48;;;;;;;19.62;50.76;100051.94;2096796;28;20107;-53
2021/03/13 03:14:30;;;;;;;29.77;18.60;;;;;;;19.60;50.73;100053.94;2089776;28;20154;-54
2021/03/13 03:15:33;;;;;;;30.85;17.85;;;;;;;19.60;50.75;100045.75;2089949;28;20044;-53
2021/03/13 03:16:38;;;;;;;27.10;17.65;;;;;;;19.59;50.73;100049.47;2098596;28;20478;-52
2021/03/13 03:17:39;;;;;;;29.02;17.85;;;;;;;19.60;50.75;100044.84;2096641;28;20466;-51
2021/03/13 03:18:41;;;;;;;27.30;16.90;;;;;;;19.60;50.74;100045.75;2098732;28;20037;-52
2021/03/13 03:19:43;;;;;;;29.80;16.65;;;;;;;19.59;50.69;100043.16;2094751;28;20042;-52
2021/03/13 03:20:46;;;;;;;32.58;18.05;;;;;;;19.59;50.82;100048.63;2097884;28;20035;-52
2021/03/13 03:21:47;;;;;;;27.55;17.58;;;;;;;19.60;50.81;100045.75;2098845;28;20107;-51
2021/03/13 03:22:47;;;;;;;31.27;18.20;;;;;;;19.59;50.74;100040.41;2096440;28;20017;-53
2021/03/13 03:23:49;;;;;;;27.07;16.43;;;;;;;19.58;50.78;100047.78;2097994;28;20130;-53
2021/03/13 03:24:50;;;;;;;30.52;16.48;;;;;;;19.58;50.90;100042.31;2090189;28;20032;-54
2021/03/13 03:25:54;;;;;;;31.47;18.77;;;;;;;19.58;51.00;100039.56;2093940;28;20063;-53
2021/03/13 03:26:56;;;;;;;25.88;16.08;;;;;;;19.58;50.90;100053.22;2096459;28;20351;-50
2021/03/13 03:27:56;;;;;;;;;;;;;;;19.57;50.85;100039.72;2095167;28;20104;-52
2021/03/13 03:28:57;;;;;;;28.02;17.05;;;;;;;19.56;50.93;100038.00;2098058;28;19912;-52
2021/03/13 03:29:57;;;;;;;25.60;16.50;;;;;;;19.54;50.93;100040.88;2096484;28;20020;-52
2021/03/13 03:30:58;;;;;;;27.60;16.20;;;;;;;19.52;51.07;100034.69;2098032;28;20130;-53
2021/03/13 03:31:59;;;;;;;27.60;17.27;;;;;;;19.53;50.81;100032.84;2095734;28;20032;-53
2021/03/13 03:33:01;;;;;;;27.07;16.23;;;;;;;19.53;50.88;100036.44;2097586;28;20024;-53
2021/03/13 03:34:01;;;;;;;26.08;16.02;;;;;;;19.53;50.95;100036.44;2098086;28;20609;-53
2021/03/13 03:35:03;;;;;;;27.63;17.40;;;;;;;19.52;50.96;100031.97;2098387;28;20109;-52
2021/03/13 03:36:03;;;;;;;25.83;15.98;;;;;;;19.52;50.96;100042.91;2090727;28;20098;-52
2021/03/13 03:37:06;;;;;;;31.50;17.17;;;;;;;19.51;50.99;100040.34;2097671;28;20743;-53
2021/03/13 03:38:07;;;;;;;25.38;16.48;;;;;;;19.50;51.11;100039.50;2096014;28;20417;-52
2021/03/13 03:39:09;;;;;;;26.02;16.08;;;;;;;19.49;50.97;100032.28;2097774;28;20455;-52
2021/03/13 03:40:10;;;;;;;;;;;;;;;19.48;51.08;100033.31;2095176;28;20106;-51
2021/03/13 03:41:10;;;;;;;28.27;17.13;;;;;;;19.47;51.01;100031.56;2097022;28;19918;-51
2021/03/13 03:42:13;;;;;;;28.07;16.90;;;;;;;19.47;51.06;100028.84;2097158;28;20351;-53
2021/03/13 03:43:16;;;;;;;29.63;16.95;;;;;;;19.46;51.04;100029.88;2098012;28;20393;-53
2021/03/13 03:44:24;;;;;;;26.77;16.65;;;;;;;19.45;51.03;100030.84;2093786;28;20036;-53
2021/03/13 03:45:26;;;;;;;29.27;16.65;;;;;;;19.46;51.15;100032.59;2096704;28;20086;-53
2021/03/13 03:46:27;;;;;;;28.83;16.45;;;;;;;19.45;51.09;100022.66;2095745;28;20111;-52
2021/03/13 03:47:30;;;;;;;28.67;17.40;;;;;;;19.44;51.20;100034.63;2096310;28;20419;-53
2021/03/13 03:48:34;;;;;;;25.75;16.83;;;;;;;19.42;51.11;100026.56;2095602;28;20039;-53
2021/03/13 03:49:35;;;;;;;25.77;15.35;;;;;;;19.43;51.39;100030.19;2098676;28;20051;-53
2021/03/13 03:50:36;;;;;;;24.73;15.75;;;;;;;19.42;51.10;100028.44;2096006;28;20403;-50
2021/03/13 03:51:38;;;;;;;28.20;16.95;;;;;;;19.42;51.29;100020.25;2097858;28;20055;-54
2021/03/13 03:52:40;;;;;;;27.55;15.88;;;;;;;19.42;51.20;100025.72;2096447;28;20046;-53
2021/03/13 03:53:42;;;;;;;28.92;16.45;;;;;;;19.41;51.16;100024.00;2094865;28;20102;-52
2021/03/13 03:54:44;;;;;;;28.77;15.80;;;;;;;19.41;51.19;100026.72;2093156;28;20040;-53
2021/03/13 03:55:48;;;;;;;23.20;15.43;;;;;;;19.40;51.12;100020.41;2097447;28;20028;-53
2021/03/13 03:56:50;;;;;;;28.42;15.45;;;;;;;19.40;51.14;100020.41;2098059;28;20814;-53
2021/03/13 03:57:51;;;;;;;28.80;15.30;;;;;;;19.39;51.17;100020.56;2097604;28;20028;-53
2021/03/13 03:58:53;;;;;;;27.27;15.07;;;;;;;19.38;51.27;100019.69;2091145;28;20040;-53
2021/03/13 03:59:54;;;;;;;;;;;;;;;19.39;51.15;100026.03;2097789;28;20024;-53
2021/03/13 04:00:57;;;;;;;29.05;16.85;;;;;;;19.39;51.08;100026.88;2096424;28;20542;-53
2021/03/13 04:02:00;;;;;;;22.70;14.85;;;;;;;19.38;51.33;100027.06;2096216;28;20028;-52
2021/03/13 04:03:04;;;;;;;24.17;15.48;;;;;;;19.38;51.13;100029.78;2097717;28;20343;-53
2021/03/13 04:04:08;;;;;;;25.40;15.13;;;;;;;19.38;51.09;100029.78;2093416;28;20095;-53
2021/03/13 04:05:11;;;;;;;27.55;15.30;;;;;;;19.37;51.24;100030.78;2098308;28;20338;-54
2021/03/13 04:06:13;;;;;;;25.30;15.80;;;;;;;19.37;51.28;100030.78;2097735;28;20058;-52
2021/03/13 04:07:13;;;;;;;;;;;;;;;19.37;51.31;100041.72;2094305;28;20067;-53
2021/03/13 04:08:16;;;;;;;29.60;15.60;;;;;;;19.36;51.15;100026.34;2098460;28;19909;-52
2021/03/13 04:09:23;;;;;;;27.25;15.25;;;;;;;19.36;51.23;100031.81;2097368;28;20025;-52
2021/03/13 04:10:25;;;;;;;27.75;16.45;;;;;;;19.35;51.09;100027.34;2091430;28;20085;-53
2021/03/13 04:11:27;;;;;;;26.15;15.18;;;;;;;19.35;51.21;100030.06;2096004;28;20431;-53
2021/03/13 04:12:28;;;;;;;29.85;16.38;;;;;;;19.35;51.17;100032.81;2096982;28;20035;-53
2021/03/13 04:13:28;;;;;;;24.93;15.40;;;;;;;19.35;51.26;100024.59;2097883;28;20088;-53
2021/03/13 04:14:30;;;;;;;28.20;15.30;;;;;;;19.35;51.11;100021.88;2096138;28;20024;-53
2021/03/13 04:15:32;;;;;;;25.58;15.50;;;;;;;19.33;51.23;100026.63;2098056;28;20060;-53
2021/03/13 04:16:34;;;;;;;29.17;15.70;;;;;;;19.32;51.32;100024.91;2097965;28;20032;-53
2021/03/13 04:17:36;;;;;;;;;;;;;;;19.33;51.26;100029.34;2096889;28;20458;-53
2021/03/13 04:18:37;;;;;;;26.33;15.80;;;;;;;19.32;51.21;100036.69;2096540;28;20304;-52
2021/03/13 04:19:38;;;;;;;22.75;14.13;;;;;;;19.32;51.28;100035.84;2092337;28;20032;-53
2021/03/13 04:20:39;;;;;;;23.23;13.80;;;;;;;19.31;51.24;100035.00;2091667;28;20060;-52
2021/03/13 04:21:40;;;;;;;27.45;16.10;;;;;;;19.30;51.31;100033.25;2090023;28;20025;-52
2021/03/13 04:22:42;;;;;;;21.02;15.50;;;;;;;19.31;51.16;100035.00;2094640;28;20476;-53
2021/03/13 04:23:47;;;;;;;27.42;16.00;;;;;;;19.30;51.29;100037.88;2098157;28;20156;-53
2021/03/13 04:24:49;;;;;;;20.60;13.60;;;;;;;19.30;51.38;100032.41;2096490;28;20336;-52
2021/03/13 04:25:52;;;;;;;23.75;14.85;;;;;;;19.30;51.36;100040.59;2097321;28;20402;-53
2021/03/13 04:26:54;;;;;;;26.42;14.85;;;;;;;19.29;51.37;100042.47;2097504;28;20059;-53
2021/03/13 04:27:54;;;;;;;;;;;;;;;19.28;51.15;100041.63;2097683;28;20408;-53
2021/03/13 04:28:55;;;;;;;22.42;13.20;;;;;;;19.28;51.37;100041.63;2094781;28;19963;-52
2021/03/13 04:29:56;;;;;;;21.37;13.30;;;;;;;19.28;51.17;100046.25;2095622;28;20026;-53
2021/03/13 04:30:57;;;;;;;23.00;14.47;;;;;;;19.27;51.28;100045.34;2097881;28;20036;-53
2021/03/13 04:31:59;;;;;;;24.77;15.32;;;;;;;19.26;51.28;100043.66;2097814;28;20032;-53
2021/03/13 04:33:01;;;;;;;24.38;14.43;;;;;;;19.27;51.23;100053.56;2095513;28;20082;-53
2021/03/13 04:34:02;;;;;;;;;;;;;;;19.27;51.23;100044.50;2097670;28;20037;-52
2021/03/13 04:35:03;;;;;;;21.15;13.50;;;;;;;19.26;51.25;100040.06;2097937;28;20200;-52
2021/03/13 04:36:05;;;;;;;22.70;14.15;;;;;;;19.25;51.38;100041.91;2097128;28;21006;-53
2021/03/13 04:37:05;;;;;;;25.77;14.27;;;;;;;19.25;51.33;100047.38;2098121;28;20036;-53
2021/03/13 04:38:07;;;;;;;23.63;14.63;;;;;;;19.25;51.36;100051.97;2097235;28;20714;-53
2021/03/13 04:39:08;;;;;;;22.30;14.05;;;;;;;19.25;51.15;100046.53;2097327;28;20055;-53
2021/03/13 04:40:10;;;;;;;21.88;14.57;;;;;;;19.26;51.26;100051.84;2096256;28;20449;-52
2021/03/13 04:41:12;;;;;;;22.05;13.90;;;;;;;19.26;51.32;100046.38;2087220;28;20090;-52
2021/03/13 04:42:12;;;;;;;22.73;14.73;;;;;;;19.27;51.39;100042.63;2095187;28;20035;-53
2021/03/13 04:43:15;;;;;;;23.13;14.33;;;;;;;19.30;51.18;100043.34;2092749;28;20641;-53
2021/03/13 04:44:16;;;;;;;23.88;14.93;;;;;;;19.31;51.14;100042.34;2096921;28;20060;-52
2021/03/13 04:45:17;;;;;;;21.77;13.60;;;;;;;19.31;51.14;100039.59;2097858;28;20025;-52
2021/03/13 04:46:20;;;;;;;24.20;14.98;;;;;;;19.32;51.19;100039.44;2097796;28;20024;-53